createdAt,value
2018-07-28T00:02:36.862Z,16.8
2018-07-28T00:07:38.684Z,16.7
2018-07-28T00:12:41.180Z,16.6
2018-07-28T00:17:43.518Z,16.6
2018-07-28T00:22:46.085Z,16.6
2018-07-28T00:27:48.828Z,16.6
2018-07-28T00:32:51.155Z,16.6
2018-07-28T00:37:53.288Z,16.5
2018-07-28T00:42:55.760Z,16.5
2018-07-28T00:47:58.192Z,16.5
2018-07-28T00:53:00.665Z,16.5
2018-07-28T00:58:03.099Z,16.5
2018-07-28T01:03:05.532Z,16.5
2018-07-28T01:08:08.029Z,16.5
2018-07-28T01:13:10.410Z,16.4
2018-07-28T01:18:12.958Z,16.5
2018-07-28T01:23:15.334Z,16.7
2018-07-28T01:28:17.755Z,16.8
2018-07-28T01:33:20.421Z,16.9
2018-07-28T01:38:22.575Z,16.9
2018-07-28T01:43:25.033Z,16.8
2018-07-28T01:48:27.487Z,16.7
2018-07-28T01:53:29.992Z,16.6
2018-07-28T01:58:32.347Z,16.4
2018-07-28T02:03:34.805Z,16.3
2018-07-28T02:08:37.276Z,16.2
2018-07-28T02:13:39.799Z,16.2
2018-07-28T02:18:42.099Z,16.1
2018-07-28T02:23:44.548Z,16.2
2018-07-28T02:28:47.204Z,16.1
2018-07-28T02:33:49.716Z,16
2018-07-28T02:38:52.358Z,16
2018-07-28T02:43:54.421Z,15.9
2018-07-28T02:48:56.800Z,15.9
2018-07-28T02:53:59.239Z,15.8
2018-07-28T02:59:01.967Z,15.8
2018-07-28T03:04:04.150Z,15.7
2018-07-28T03:09:06.507Z,15.7
2018-07-28T03:14:09.465Z,15.6
2018-07-28T03:19:11.455Z,15.6
2018-07-28T03:24:14.122Z,15.5
2018-07-28T03:29:16.284Z,15.5
2018-07-28T03:34:18.720Z,15.5
2018-07-28T03:39:21.181Z,15.5
2018-07-28T03:44:23.806Z,15.6
2018-07-28T03:49:26.094Z,15.6
2018-07-28T03:54:28.873Z,15.7
2018-07-28T03:59:30.943Z,15.8
2018-07-28T04:04:33.653Z,16
2018-07-28T04:09:35.797Z,16.2
2018-07-28T04:14:38.266Z,16.3
2018-07-28T04:24:43.189Z,16.6
2018-07-28T04:29:45.728Z,16.8
2018-07-28T04:34:48.014Z,17.1
2018-07-28T04:39:50.466Z,17.3
2018-07-28T04:44:52.925Z,17.7
2018-07-28T04:49:55.553Z,18
2018-07-28T04:54:57.783Z,18.3
2018-07-28T05:00:00.264Z,18.7
2018-07-28T05:05:02.715Z,19
2018-07-28T05:10:05.894Z,19.3
2018-07-28T05:15:07.805Z,19.5
2018-07-28T05:20:10.598Z,20
2018-07-28T05:25:12.521Z,21
2018-07-28T05:30:15.049Z,25.1
2018-07-28T05:35:17.302Z,29.1
2018-07-28T05:40:19.772Z,32.1
2018-07-28T05:45:22.498Z,32
2018-07-28T05:50:24.890Z,31.3
2018-07-28T05:55:27.104Z,32.8
2018-07-28T06:00:29.552Z,34.5
2018-07-28T06:05:32.025Z,35.2
2018-07-28T06:10:34.441Z,35.9
2018-07-28T06:15:37.060Z,36.2
2018-07-28T06:20:39.353Z,36.5
2018-07-28T06:30:44.237Z,37.2
2018-07-28T06:35:46.632Z,38.2
2018-07-28T06:40:49.086Z,37.9
2018-07-28T06:45:51.533Z,38
2018-07-28T06:50:53.964Z,37
2018-07-28T06:55:56.509Z,36.9
2018-07-28T07:00:58.929Z,37.4
2018-07-28T07:06:01.292Z,38.9
2018-07-28T07:11:03.911Z,38.6
2018-07-28T07:16:06.173Z,39
2018-07-28T07:21:08.620Z,38.5
2018-07-28T07:26:11.077Z,38.2
2018-07-28T07:31:13.659Z,37.6
2018-07-28T07:36:16.051Z,37.5
2018-07-28T07:41:18.393Z,38.1
2018-07-28T07:46:20.904Z,38.8
2018-07-28T07:51:23.260Z,39.4
2018-07-28T07:56:25.701Z,39.3
2018-07-28T08:01:28.233Z,39.3
2018-07-28T08:06:30.688Z,38.9
2018-07-28T08:11:33.039Z,38.6
2018-07-28T08:16:35.747Z,39
2018-07-28T08:21:38.048Z,39
2018-07-28T08:26:40.381Z,37.9
2018-07-28T08:31:42.801Z,37.5
2018-07-28T08:36:45.305Z,37.8
2018-07-28T08:41:47.879Z,37.7
2018-07-28T08:46:50.156Z,38
2018-07-28T08:51:52.745Z,38.7
2018-07-28T08:56:55.027Z,38.6
2018-07-28T09:01:57.460Z,38.9
